sensor_id;sensor_type;location;lat;lon;timestamp;P1;durP1;ratioP1;P2;durP2;ratioP2
42704;SDS011;28342;42.594;23.414;2024-03-06T00:00:46;4.47;;;3.40;;
42704;SDS011;28342;42.594;23.414;2024-03-06T00:03:12;5.78;;;4.15;;
42704;SDS011;28342;42.594;23.414;2024-03-06T00:05:37;4.18;;;3.63;;
42704;SDS011;28342;42.594;23.414;2024-03-06T00:08:03;5.13;;;3.85;;
42704;SDS011;28342;42.594;23.414;2024-03-06T00:10:29;5.43;;;3.85;;
42704;SDS011;28342;42.594;23.414;2024-03-06T00:12:54;4.30;;;3.80;;
42704;SDS011;28342;42.594;23.414;2024-03-06T00:15:20;3.88;;;3.20;;
42704;SDS011;28342;42.594;23.414;2024-03-06T00:17:46;6.18;;;3.58;;
42704;SDS011;28342;42.594;23.414;2024-03-06T00:20:11;4.57;;;3.80;;
42704;SDS011;28342;42.594;23.414;2024-03-06T00:22:37;4.85;;;3.85;;
42704;SDS011;28342;42.594;23.414;2024-03-06T00:25:02;5.03;;;3.83;;
42704;SDS011;28342;42.594;23.414;2024-03-06T00:27:28;5.28;;;4.03;;
42704;SDS011;28342;42.594;23.414;2024-03-06T00:29:53;4.38;;;3.70;;
42704;SDS011;28342;42.594;23.414;2024-03-06T00:32:19;4.47;;;3.80;;
42704;SDS011;28342;42.594;23.414;2024-03-06T00:34:44;4.03;;;3.47;;
42704;SDS011;28342;42.594;23.414;2024-03-06T00:37:10;5.47;;;3.55;;
42704;SDS011;28342;42.594;23.414;2024-03-06T00:39:35;5.88;;;3.75;;
42704;SDS011;28342;42.594;23.414;2024-03-06T00:42:01;4.60;;;3.50;;
42704;SDS011;28342;42.594;23.414;2024-03-06T00:44:26;4.35;;;3.88;;
42704;SDS011;28342;42.594;23.414;2024-03-06T00:46:51;4.97;;;3.65;;
42704;SDS011;28342;42.594;23.414;2024-03-06T00:49:17;5.28;;;3.92;;
42704;SDS011;28342;42.594;23.414;2024-03-06T00:51:42;4.63;;;3.60;;
42704;SDS011;28342;42.594;23.414;2024-03-06T00:54:08;4.40;;;3.65;;
42704;SDS011;28342;42.594;23.414;2024-03-06T00:56:36;5.60;;;4.25;;
42704;SDS011;28342;42.594;23.414;2024-03-06T00:59:05;4.72;;;3.58;;
42704;SDS011;28342;42.594;23.414;2024-03-06T01:01:30;5.25;;;3.95;;
42704;SDS011;28342;42.594;23.414;2024-03-06T01:03:56;5.07;;;4.00;;
42704;SDS011;28342;42.594;23.414;2024-03-06T01:06:21;4.97;;;4.00;;
42704;SDS011;28342;42.594;23.414;2024-03-06T01:08:49;5.05;;;3.75;;
42704;SDS011;28342;42.594;23.414;2024-03-06T01:11:15;4.70;;;3.88;;
42704;SDS011;28342;42.594;23.414;2024-03-06T01:13:40;6.13;;;4.75;;
42704;SDS011;28342;42.594;23.414;2024-03-06T01:16:06;4.88;;;3.95;;
42704;SDS011;28342;42.594;23.414;2024-03-06T01:18:31;5.32;;;4.13;;
42704;SDS011;28342;42.594;23.414;2024-03-06T01:20:57;3.85;;;3.47;;
42704;SDS011;28342;42.594;23.414;2024-03-06T01:23:23;5.35;;;4.32;;
42704;SDS011;28342;42.594;23.414;2024-03-06T01:25:48;4.45;;;3.75;;
42704;SDS011;28342;42.594;23.414;2024-03-06T01:28:14;4.38;;;3.97;;
42704;SDS011;28342;42.594;23.414;2024-03-06T01:30:39;4.40;;;4.00;;
42704;SDS011;28342;42.594;23.414;2024-03-06T01:33:05;6.18;;;3.80;;
42704;SDS011;28342;42.594;23.414;2024-03-06T01:35:30;5.88;;;4.13;;
42704;SDS011;28342;42.594;23.414;2024-03-06T01:37:55;4.65;;;3.90;;
42704;SDS011;28342;42.594;23.414;2024-03-06T01:40:21;6.82;;;4.53;;
42704;SDS011;28342;42.594;23.414;2024-03-06T01:42:49;4.60;;;3.78;;
42704;SDS011;28342;42.594;23.414;2024-03-06T01:45:14;5.03;;;3.75;;
42704;SDS011;28342;42.594;23.414;2024-03-06T01:47:40;5.13;;;4.18;;
42704;SDS011;28342;42.594;23.414;2024-03-06T01:50:05;4.43;;;3.70;;
42704;SDS011;28342;42.594;23.414;2024-03-06T01:52:34;5.10;;;4.45;;
42704;SDS011;28342;42.594;23.414;2024-03-06T01:55:00;3.95;;;3.55;;
42704;SDS011;28342;42.594;23.414;2024-03-06T01:57:26;4.78;;;3.67;;
42704;SDS011;28342;42.594;23.414;2024-03-06T01:59:52;4.80;;;3.90;;
42704;SDS011;28342;42.594;23.414;2024-03-06T02:02:18;4.47;;;3.70;;
42704;SDS011;28342;42.594;23.414;2024-03-06T02:04:45;6.22;;;4.30;;
42704;SDS011;28342;42.594;23.414;2024-03-06T02:07:11;4.35;;;3.83;;
42704;SDS011;28342;42.594;23.414;2024-03-06T02:09:39;4.15;;;3.70;;
42704;SDS011;28342;42.594;23.414;2024-03-06T02:12:05;4.38;;;3.70;;
42704;SDS011;28342;42.594;23.414;2024-03-06T02:14:33;6.05;;;4.05;;
42704;SDS011;28342;42.594;23.414;2024-03-06T02:16:59;4.18;;;3.53;;
42704;SDS011;28342;42.594;23.414;2024-03-06T02:19:37;4.60;;;4.05;;
42704;SDS011;28342;42.594;23.414;2024-03-06T02:22:06;5.20;;;4.22;;
42704;SDS011;28342;42.594;23.414;2024-03-06T02:24:35;5.40;;;4.20;;
42704;SDS011;28342;42.594;23.414;2024-03-06T02:27:02;5.40;;;4.18;;
42704;SDS011;28342;42.594;23.414;2024-03-06T02:29:30;5.43;;;4.18;;
42704;SDS011;28342;42.594;23.414;2024-03-06T02:31:56;5.10;;;3.90;;
42704;SDS011;28342;42.594;23.414;2024-03-06T02:34:23;5.93;;;4.18;;
42704;SDS011;28342;42.594;23.414;2024-03-06T02:36:50;4.45;;;3.85;;
42704;SDS011;28342;42.594;23.414;2024-03-06T02:39:16;4.10;;;3.70;;
42704;SDS011;28342;42.594;23.414;2024-03-06T02:41:42;5.25;;;3.75;;
42704;SDS011;28342;42.594;23.414;2024-03-06T02:44:08;5.35;;;4.10;;
42704;SDS011;28342;42.594;23.414;2024-03-06T02:46:33;3.90;;;3.50;;
42704;SDS011;28342;42.594;23.414;2024-03-06T02:48:59;5.10;;;3.90;;
42704;SDS011;28342;42.594;23.414;2024-03-06T02:51:24;5.10;;;4.25;;
42704;SDS011;28342;42.594;23.414;2024-03-06T02:53:50;4.72;;;4.05;;
42704;SDS011;28342;42.594;23.414;2024-03-06T02:56:18;6.07;;;4.43;;
42704;SDS011;28342;42.594;23.414;2024-03-06T02:58:44;5.15;;;3.95;;
42704;SDS011;28342;42.594;23.414;2024-03-06T03:01:10;4.75;;;3.63;;
42704;SDS011;28342;42.594;23.414;2024-03-06T03:03:36;5.03;;;3.92;;
42704;SDS011;28342;42.594;23.414;2024-03-06T03:06:01;5.18;;;3.97;;
42704;SDS011;28342;42.594;23.414;2024-03-06T03:08:27;5.07;;;3.80;;
42704;SDS011;28342;42.594;23.414;2024-03-06T03:10:53;4.50;;;3.90;;
42704;SDS011;28342;42.594;23.414;2024-03-06T03:13:18;4.63;;;3.95;;
42704;SDS011;28342;42.594;23.414;2024-03-06T03:15:44;5.55;;;4.20;;
42704;SDS011;28342;42.594;23.414;2024-03-06T03:18:09;5.03;;;4.20;;
42704;SDS011;28342;42.594;23.414;2024-03-06T03:20:35;6.03;;;4.57;;
42704;SDS011;28342;42.594;23.414;2024-03-06T03:23:01;5.28;;;4.45;;
42704;SDS011;28342;42.594;23.414;2024-03-06T03:25:27;5.50;;;4.10;;
42704;SDS011;28342;42.594;23.414;2024-03-06T03:27:52;5.05;;;3.97;;
42704;SDS011;28342;42.594;23.414;2024-03-06T03:30:18;5.63;;;4.15;;
42704;SDS011;28342;42.594;23.414;2024-03-06T03:32:46;4.53;;;3.92;;
42704;SDS011;28342;42.594;23.414;2024-03-06T03:35:15;4.72;;;4.20;;
42704;SDS011;28342;42.594;23.414;2024-03-06T03:37:42;5.03;;;3.92;;
42704;SDS011;28342;42.594;23.414;2024-03-06T03:40:08;5.55;;;4.20;;
42704;SDS011;28342;42.594;23.414;2024-03-06T03:42:36;4.55;;;3.97;;
42704;SDS011;28342;42.594;23.414;2024-03-06T03:45:02;5.15;;;4.20;;
42704;SDS011;28342;42.594;23.414;2024-03-06T03:47:28;5.93;;;4.10;;
42704;SDS011;28342;42.594;23.414;2024-03-06T03:49:53;6.75;;;4.38;;
42704;SDS011;28342;42.594;23.414;2024-03-06T03:52:19;5.25;;;3.90;;
42704;SDS011;28342;42.594;23.414;2024-03-06T03:54:44;6.03;;;4.15;;
42704;SDS011;28342;42.594;23.414;2024-03-06T03:57:10;7.30;;;4.32;;
42704;SDS011;28342;42.594;23.414;2024-03-06T03:59:36;5.97;;;4.40;;
42704;SDS011;28342;42.594;23.414;2024-03-06T04:02:03;6.38;;;4.43;;
42704;SDS011;28342;42.594;23.414;2024-03-06T04:04:29;4.80;;;4.28;;
42704;SDS011;28342;42.594;23.414;2024-03-06T04:06:54;6.03;;;4.68;;
42704;SDS011;28342;42.594;23.414;2024-03-06T04:09:20;5.43;;;4.35;;
42704;SDS011;28342;42.594;23.414;2024-03-06T04:11:45;4.78;;;4.28;;
42704;SDS011;28342;42.594;23.414;2024-03-06T04:14:11;5.03;;;3.90;;
42704;SDS011;28342;42.594;23.414;2024-03-06T04:16:36;5.47;;;4.32;;
42704;SDS011;28342;42.594;23.414;2024-03-06T04:19:01;6.18;;;4.85;;
42704;SDS011;28342;42.594;23.414;2024-03-06T04:21:28;5.55;;;4.50;;
42704;SDS011;28342;42.594;23.414;2024-03-06T04:23:54;5.57;;;4.32;;
42704;SDS011;28342;42.594;23.414;2024-03-06T04:26:19;6.65;;;4.63;;
42704;SDS011;28342;42.594;23.414;2024-03-06T04:28:45;6.68;;;4.70;;
42704;SDS011;28342;42.594;23.414;2024-03-06T04:31:10;5.55;;;4.28;;
42704;SDS011;28342;42.594;23.414;2024-03-06T04:33:36;4.93;;;4.10;;
42704;SDS011;28342;42.594;23.414;2024-03-06T04:36:05;5.13;;;4.50;;
42704;SDS011;28342;42.594;23.414;2024-03-06T04:38:33;7.05;;;4.63;;
42704;SDS011;28342;42.594;23.414;2024-03-06T04:40:59;5.72;;;4.28;;
42704;SDS011;28342;42.594;23.414;2024-03-06T04:43:24;6.45;;;4.40;;
42704;SDS011;28342;42.594;23.414;2024-03-06T04:45:50;6.35;;;4.65;;
42704;SDS011;28342;42.594;23.414;2024-03-06T04:48:15;4.88;;;4.10;;
42704;SDS011;28342;42.594;23.414;2024-03-06T04:50:41;6.07;;;4.68;;
42704;SDS011;28342;42.594;23.414;2024-03-06T04:53:06;5.65;;;4.47;;
42704;SDS011;28342;42.594;23.414;2024-03-06T04:55:32;6.50;;;4.60;;
42704;SDS011;28342;42.594;23.414;2024-03-06T04:57:57;5.25;;;4.28;;
42704;SDS011;28342;42.594;23.414;2024-03-06T05:00:23;5.30;;;4.13;;
42704;SDS011;28342;42.594;23.414;2024-03-06T05:02:48;5.72;;;4.32;;
42704;SDS011;28342;42.594;23.414;2024-03-06T05:05:14;5.65;;;4.40;;
42704;SDS011;28342;42.594;23.414;2024-03-06T05:07:40;5.40;;;4.50;;
42704;SDS011;28342;42.594;23.414;2024-03-06T05:10:05;5.97;;;4.32;;
42704;SDS011;28342;42.594;23.414;2024-03-06T05:12:32;5.20;;;4.68;;
42704;SDS011;28342;42.594;23.414;2024-03-06T05:14:59;6.75;;;4.45;;
42704;SDS011;28342;42.594;23.414;2024-03-06T05:17:25;6.28;;;3.97;;
42704;SDS011;28342;42.594;23.414;2024-03-06T05:19:50;5.63;;;4.90;;
42704;SDS011;28342;42.594;23.414;2024-03-06T05:22:16;6.25;;;5.05;;
42704;SDS011;28342;42.594;23.414;2024-03-06T05:24:42;6.88;;;4.38;;
42704;SDS011;28342;42.594;23.414;2024-03-06T05:27:09;5.30;;;4.65;;
42704;SDS011;28342;42.594;23.414;2024-03-06T05:29:35;6.00;;;4.65;;
42704;SDS011;28342;42.594;23.414;2024-03-06T05:32:04;5.78;;;4.80;;
42704;SDS011;28342;42.594;23.414;2024-03-06T05:34:32;7.15;;;5.38;;
42704;SDS011;28342;42.594;23.414;2024-03-06T05:36:58;6.18;;;5.00;;
42704;SDS011;28342;42.594;23.414;2024-03-06T05:39:23;13.98;;;5.65;;
42704;SDS011;28342;42.594;23.414;2024-03-06T05:41:48;10.90;;;5.38;;
42704;SDS011;28342;42.594;23.414;2024-03-06T05:44:14;9.02;;;5.20;;
42704;SDS011;28342;42.594;23.414;2024-03-06T05:46:40;10.85;;;4.65;;
42704;SDS011;28342;42.594;23.414;2024-03-06T05:49:05;9.45;;;4.72;;
42704;SDS011;28342;42.594;23.414;2024-03-06T05:51:31;13.20;;;5.28;;
42704;SDS011;28342;42.594;23.414;2024-03-06T05:53:56;9.05;;;4.82;;
42704;SDS011;28342;42.594;23.414;2024-03-06T05:56:21;8.77;;;5.10;;
42704;SDS011;28342;42.594;23.414;2024-03-06T05:58:47;9.82;;;6.07;;
42704;SDS011;28342;42.594;23.414;2024-03-06T06:01:17;8.60;;;4.57;;
42704;SDS011;28342;42.594;23.414;2024-03-06T06:03:48;7.13;;;4.78;;
42704;SDS011;28342;42.594;23.414;2024-03-06T06:06:15;9.18;;;5.50;;
42704;SDS011;28342;42.594;23.414;2024-03-06T06:08:41;6.15;;;5.00;;
42704;SDS011;28342;42.594;23.414;2024-03-06T06:11:06;8.30;;;4.63;;
42704;SDS011;28342;42.594;23.414;2024-03-06T06:13:32;10.70;;;5.38;;
42704;SDS011;28342;42.594;23.414;2024-03-06T06:15:58;6.07;;;4.57;;
42704;SDS011;28342;42.594;23.414;2024-03-06T06:18:24;4.68;;;3.97;;
42704;SDS011;28342;42.594;23.414;2024-03-06T06:20:49;6.18;;;4.65;;
